Terminal Aerodrome Forecast
Issued by NWS Caribou, ME

Home | Current Version | Previous Version | Text Only | Print | Product List | Glossary On
Versions: 1 2 3 4 5 6 7 8 9 10 11 12 13 14 15 16 17 18 19 20 21 22
000
FTUS41 KCAR 240027 AAA
TAFBGR
TAF AMD
KBGR 240027Z 2400/2424 19005KT P6SM BKN005
     FM240200 18004KT 5SM BR BKN003
     FM240600 16005KT 1/4SM FG OVC002
     FM241100 18010KT 1/2SM FG OVC001
     FM241500 18010KT 4SM BR OVC007=

USA.gov is the U.S. government's official web portal to all federal, state and local government web resources and services.